Baycat — WDA9210 — position and weather

sailwx.info

Track history (hours):
 
Tides and Currents Weather Stations Pressure Air Temp Water Temp Dewpoint Dewpoint Depression Visibility Wind Speed Wind Dir Waves Ship Positions

Baycat

Owner: TAURUS MARINE, SAN FRANCISCO, CA. More information available from US FCC via Universal Licensing System and Coast Guard Vessel Documentation Center.

Last reported at 2017-Dec-18 07:00 UTC. Time now 2017-Dec-18 07:17 UTC.
Position N 37°46' W 122°23'.

Length 14 m; draft 2 m.

Type: Tug. MMSI: 366862680.

Date/timePositionNaut miles runAvg speedWind from/ knotsBaromVisibWave heightAir tempDewpointWater temp
2017-Dec-18 07:00N 37°46' W 122°23'0 0.0
2017-Dec-17 17:40N 37°46' W 122°23'0 0.0
2017-Dec-17 17:30N 37°46' W 122°23'0 0.1
2017-Dec-17 17:00N 37°46' W 122°23'0 0.0
2017-Dec-17 16:30N 37°46' W 122°23'0 0.0
2017-Dec-17 16:00N 37°46' W 122°23'0 0.1
2017-Dec-17 15:30N 37°46' W 122°23'0 0.0
2017-Dec-17 02:37N 37°46' W 122°23'0 0.1
2017-Dec-17 02:31N 37°46' W 122°23'2 4.2
2017-Dec-17 02:00N 37°49' W 122°23'4 7.2
2017-Dec-17 01:31N 37°52' W 122°24'2 4.8
2017-Dec-17 01:01N 37°54' W 122°22'1 1.6
2017-Dec-17 00:30N 37°55' W 122°22'0 0.0
2017-Dec-17 00:01N 37°55' W 122°22'0 0.0
2017-Dec-16 23:30N 37°55' W 122°22'0 0.0
2017-Dec-16 23:01N 37°55' W 122°22'0 0.0
2017-Dec-16 22:31N 37°55' W 122°22'0 0.0
2017-Dec-16 22:00N 37°55' W 122°22'0 0.0
2017-Dec-16 21:29N 37°55' W 122°22'0 0.7
2017-Dec-16 21:00N 37°55' W 122°22'2 4.3
2017-Dec-16 20:30N 37°54' W 122°24'3 5.0
2017-Dec-16 20:00N 37°51' W 122°23'3 6.0
2017-Dec-16 19:31N 37°49' W 122°21'3 5.2
2017-Dec-16 19:00N 37°46' W 122°21'2 4.8
2017-Dec-16 18:31N 37°44' W 122°20'1 3.0
2017-Dec-16 18:00N 37°42' W 122°20'0 0.0
2017-Dec-16 17:31N 37°42' W 122°20'0 0.0
2017-Dec-16 17:00N 37°42' W 122°20'0 0.2
2017-Dec-16 16:30N 37°42' W 122°20'4 7.6
2017-Dec-16 16:00N 37°46' W 122°22'1 2.1
2017-Dec-16 15:30N 37°46' W 122°23'0 0.0
2017-Dec-15 21:19N 37°46' W 122°23'0 1.1
2017-Dec-15 21:01N 37°46' W 122°23'1 2.8
2017-Dec-15 20:31N 37°46' W 122°21'0 0.0
2017-Dec-15 20:01N 37°46' W 122°21'0 0.0
2017-Dec-15 19:31N 37°46' W 122°21'0 0.1
2017-Dec-15 19:00N 37°46' W 122°21'0 0.3
2017-Dec-15 18:31N 37°45' W 122°21'0 0.2
2017-Dec-15 18:01N 37°45' W 122°21'0 0.1
2017-Dec-15 17:31N 37°45' W 122°21'0 0.1
2017-Dec-15 17:00N 37°45' W 122°21'0 0.2
2017-Dec-15 16:30N 37°45' W 122°21'2 4.0
2017-Dec-15 16:00N 37°46' W 122°23'0 0.0
2017-Dec-14 18:31N 37°46' W 122°23'0 0.1
2017-Dec-14 18:01N 37°46' W 122°23'0 0.0
2017-Dec-14 17:30N 37°46' W 122°23'0 0.0
2017-Dec-14 17:01N 37°46' W 122°23'0 0.1
2017-Dec-14 16:31N 37°46' W 122°23'0 0.2
2017-Dec-14 16:01N 37°46' W 122°23'0 0.0
2017-Dec-14 06:37N 37°46' W 122°23'0 0.0
2017-Dec-14 06:30N 37°46' W 122°23'2 3.4
2017-Dec-14 06:01N 37°45' W 122°21'0 0.1
2017-Dec-14 05:30N 37°45' W 122°21'0 0.1
2017-Dec-14 05:00N 37°45' W 122°21'0 0.0
2017-Dec-14 04:30N 37°45' W 122°21'0 0.0
2017-Dec-14 04:00N 37°45' W 122°21'0 0.0
2017-Dec-14 03:30N 37°45' W 122°21'0 0.0
2017-Dec-14 03:00N 37°45' W 122°21'0 0.0
2017-Dec-14 02:30N 37°45' W 122°21'0 0.0
2017-Dec-14 02:00N 37°45' W 122°21'0 0.0
2017-Dec-14 01:30N 37°45' W 122°21'0 0.0
2017-Dec-14 01:00N 37°45' W 122°21'0 0.0
2017-Dec-14 00:30N 37°45' W 122°21'0 0.3
2017-Dec-14 00:00N 37°46' W 122°21'0 0.2
2017-Dec-13 23:30N 37°46' W 122°21'0 0.0
2017-Dec-13 23:00N 37°46' W 122°21'0 0.0
2017-Dec-13 22:30N 37°46' W 122°21'0 0.1
2017-Dec-13 22:00N 37°46' W 122°21'0 0.0
2017-Dec-13 21:30N 37°46' W 122°21'2 4.4
2017-Dec-13 21:00N 37°48' W 122°21'1 1.7
2017-Dec-13 20:30N 37°48' W 122°20'0 0.0
2017-Dec-13 20:00N 37°48' W 122°20'0 0.0
2017-Dec-13 19:30N 37°48' W 122°20'0 0.0
2017-Dec-13 19:00N 37°48' W 122°20'0 0.0
2017-Dec-13 18:31N 37°48' W 122°20'0 0.0
2017-Dec-13 18:00N 37°48' W 122°20'0 0.0
2017-Dec-13 17:30N 37°48' W 122°20'0 0.0
2017-Dec-13 17:00N 37°48' W 122°20'0 0.0
2017-Dec-13 16:30N 37°48' W 122°20'0 0.0
2017-Dec-13 16:00N 37°48' W 122°20'2 3.7
2017-Dec-13 15:30N 37°47' W 122°22'1 2.7
2017-Dec-13 15:00N 37°46' W 122°23'0 0.0
2017-Dec-13 14:30N 37°46' W 122°23'1 1.9
2017-Dec-13 14:00N 37°47' W 122°23'4 8.7
2017-Dec-13 13:30N 37°52' W 122°23'3 5.1
2017-Dec-13 13:00N 37°54' W 122°23'1 2.4
2017-Dec-13 12:30N 37°55' W 122°22'0 0.0
2017-Dec-13 12:00N 37°55' W 122°22'0 0.0
2017-Dec-13 11:30N 37°55' W 122°22'0 0.0
2017-Dec-13 11:00N 37°55' W 122°22'0 0.0
2017-Dec-13 10:30N 37°55' W 122°22'0 0.0
2017-Dec-13 10:00N 37°55' W 122°22'0 0.0
2017-Dec-13 09:30N 37°55' W 122°22'0 0.0
2017-Dec-13 09:00N 37°55' W 122°22'0 0.0
2017-Dec-13 08:30N 37°55' W 122°22'0 0.0
2017-Dec-13 08:00N 37°55' W 122°22'0 0.0
2017-Dec-13 07:30N 37°55' W 122°22'0 0.9
2017-Dec-13 07:00N 37°55' W 122°22'3 5.3
2017-Dec-13 06:30N 37°53' W 122°24'4 9.0
2017-Dec-13 06:00N 37°49' W 122°21'3 5.7
2017-Dec-13 05:30N 37°46' W 122°21'0 0.4
2017-Dec-13 05:00N 37°46' W 122°20'0 0.0
2017-Dec-13 04:31N 37°46' W 122°20'0 0.1
2017-Dec-13 04:00N 37°46' W 122°20'0 0.0
2017-Dec-13 03:30N 37°46' W 122°20'0 0.0
2017-Dec-13 03:00N 37°46' W 122°20'0 0.0
2017-Dec-13 02:30N 37°46' W 122°20'0 0.0
2017-Dec-13 02:00N 37°46' W 122°20'0 0.1
2017-Dec-13 01:30N 37°46' W 122°20'2 4.6
2017-Dec-13 01:00N 37°46' W 122°23'0 0.0
2017-Dec-13 00:30N 37°46' W 122°23'0 0.0
2017-Dec-13 00:00N 37°46' W 122°23'0 0.0
2017-Dec-12 23:30N 37°46' W 122°23'0 0.0
2017-Dec-12 23:01N 37°46' W 122°23'0 0.0
2017-Dec-12 22:30N 37°46' W 122°23'1 1.4
2017-Dec-12 22:00N 37°46' W 122°22'2 3.5
2017-Dec-12 21:30N 37°46' W 122°20'0 0.0
2017-Dec-12 21:00N 37°46' W 122°20'0 0.0
2017-Dec-12 20:31N 37°46' W 122°20'0 0.0
2017-Dec-12 20:00N 37°46' W 122°20'0 0.0
2017-Dec-12 19:31N 37°46' W 122°20'0 0.0
2017-Dec-12 19:00N 37°46' W 122°20'0 0.1
2017-Dec-12 18:30N 37°46' W 122°20'0 0.1
2017-Dec-12 18:01N 37°46' W 122°20'0 0.1
2017-Dec-12 17:31N 37°46' W 122°20'2 4.6
2017-Dec-12 17:00N 37°46' W 122°23'0 0.1
2017-Dec-12 16:30N 37°46' W 122°23'0 0.0
2017-Dec-12 16:00N 37°46' W 122°23'0 0.0
2017-Dec-11 20:45N 37°46' W 122°23'0 1.0
2017-Dec-11 20:30N 37°47' W 122°23'2 4.6
2017-Dec-11 20:01N 37°45' W 122°21'0 0.0
2017-Dec-11 19:30N 37°45' W 122°21'0 0.0
2017-Dec-11 19:01N 37°45' W 122°21'0 0.0
2017-Dec-11 18:30N 37°45' W 122°21'0 0.0
2017-Dec-11 18:00N 37°45' W 122°21'0 0.1
2017-Dec-11 17:30N 37°45' W 122°21'0 0.0
2017-Dec-11 17:00N 37°45' W 122°21'0 0.5
2017-Dec-11 16:30N 37°45' W 122°21'2 4.6
2017-Dec-11 16:00N 37°46' W 122°23'0 0.0
2017-Dec-10 05:01N 37°46' W 122°23'0 0.0
2017-Dec-10 05:00N 37°46' W 122°23'1 1.6
2017-Dec-10 04:30N 37°47' W 122°23'3 6.1
2017-Dec-10 04:00N 37°50' W 122°25'3 5.7
2017-Dec-10 03:30N 37°51' W 122°28'0 0.1
2017-Dec-10 03:01N 37°51' W 122°28'0 0.1
2017-Dec-10 02:31N 37°51' W 122°28'4 7.2
2017-Dec-10 02:00N 37°49' W 122°24'3 6.2
2017-Dec-10 01:30N 37°46' W 122°23'0 0.0
2017-Dec-09 22:36N 37°46' W 122°23'0 0.1
2017-Dec-09 22:30N 37°46' W 122°23'3 7.0
2017-Dec-09 22:00N 37°50' W 122°23'4 7.7
2017-Dec-09 21:31N 37°54' W 122°24'2 3.2
2017-Dec-09 20:51N 37°55' W 122°22'0 0.0
2017-Dec-09 20:27N 37°55' W 122°22'0 0.0
2017-Dec-09 19:59N 37°55' W 122°22'0 0.0
2017-Dec-09 18:34N 37°55' W 122°22'0 0.0
2017-Dec-09 18:25N 37°55' W 122°22'0 0.0
2017-Dec-09 17:58N 37°55' W 122°22'0 0.0
2017-Dec-09 17:14N 37°55' W 122°22'0 0.0
2017-Dec-09 16:59N 37°55' W 122°22'0 0.2
2017-Dec-09 16:31N 37°55' W 122°22'2 3.9
2017-Dec-09 16:01N 37°54' W 122°24'4 7.1
2017-Dec-09 15:31N 37°50' W 122°23'4 7.8
2017-Dec-09 15:00N 37°46' W 122°23'0 0.0
2017-Dec-09 04:38N 37°46' W 122°23'0 0.0
2017-Dec-09 04:30N 37°46' W 122°23'2 3.1
2017-Dec-09 04:00N 37°46' W 122°21'0 0.0
2017-Dec-09 03:30N 37°46' W 122°21'0 0.0
2017-Dec-09 03:00N 37°46' W 122°21'0 0.0
2017-Dec-09 02:31N 37°46' W 122°21'0 0.0
2017-Dec-09 02:00N 37°46' W 122°21'0 0.1
2017-Dec-09 01:31N 37°46' W 122°21'0 0.0
2017-Dec-09 01:01N 37°46' W 122°21'0 0.0
2017-Dec-09 00:30N 37°46' W 122°21'0 0.3
2017-Dec-09 00:00N 37°46' W 122°21'0 0.2
2017-Dec-08 23:30N 37°45' W 122°21'0 0.1
2017-Dec-08 23:00N 37°45' W 122°21'0 0.0
2017-Dec-08 22:30N 37°45' W 122°21'0 0.0
2017-Dec-08 22:00N 37°45' W 122°21'0 0.0
2017-Dec-08 21:31N 37°45' W 122°21'0 0.0
2017-Dec-08 21:01N 37°45' W 122°21'0 0.0
2017-Dec-08 20:30N 37°45' W 122°21'0 0.0
2017-Dec-08 20:00N 37°45' W 122°21'0 0.0
2017-Dec-08 19:31N 37°45' W 122°21'0 0.1
2017-Dec-08 19:00N 37°45' W 122°21'2 3.7
2017-Dec-08 18:30N 37°46' W 122°23'0 0.0
2017-Dec-08 18:00N 37°46' W 122°23'  
Track history (hours):
 
Tides and Currents Weather Stations Pressure Air Temp Water Temp Dewpoint Dewpoint Depression Visibility Wind Speed Wind Dir Waves Ship Positions

Baycat

Owner: TAURUS MARINE, SAN FRANCISCO, CA. More information available from US FCC via Universal Licensing System and Coast Guard Vessel Documentation Center.

Last reported at 2017-Dec-18 07:00 UTC. Time now 2017-Dec-18 07:17 UTC.
Position N 37°46' W 122°23'.

Length 14 m; draft 2 m.

Type: Tug. MMSI: 366862680.

Date/timePositionNaut miles runAvg speedWind from/ knotsBaromVisibWave heightAir tempDewpointWater temp
2017-Dec-18 07:00N 37°46' W 122°23'0 0.0
2017-Dec-17 17:40N 37°46' W 122°23'0 0.0
2017-Dec-17 17:30N 37°46' W 122°23'0 0.1
2017-Dec-17 17:00N 37°46' W 122°23'0 0.0
2017-Dec-17 16:30N 37°46' W 122°23'0 0.0
2017-Dec-17 16:00N 37°46' W 122°23'0 0.1
2017-Dec-17 15:30N 37°46' W 122°23'0 0.0
2017-Dec-17 02:37N 37°46' W 122°23'0 0.1
2017-Dec-17 02:31N 37°46' W 122°23'2 4.2
2017-Dec-17 02:00N 37°49' W 122°23'4 7.2
2017-Dec-17 01:31N 37°52' W 122°24'2 4.8
2017-Dec-17 01:01N 37°54' W 122°22'1 1.6
2017-Dec-17 00:30N 37°55' W 122°22'0 0.0
2017-Dec-17 00:01N 37°55' W 122°22'0 0.0
2017-Dec-16 23:30N 37°55' W 122°22'0 0.0
2017-Dec-16 23:01N 37°55' W 122°22'0 0.0
2017-Dec-16 22:31N 37°55' W 122°22'0 0.0
2017-Dec-16 22:00N 37°55' W 122°22'0 0.0
2017-Dec-16 21:29N 37°55' W 122°22'0 0.7
2017-Dec-16 21:00N 37°55' W 122°22'2 4.3
2017-Dec-16 20:30N 37°54' W 122°24'3 5.0
2017-Dec-16 20:00N 37°51' W 122°23'3 6.0
2017-Dec-16 19:31N 37°49' W 122°21'3 5.2
2017-Dec-16 19:00N 37°46' W 122°21'2 4.8
2017-Dec-16 18:31N 37°44' W 122°20'1 3.0
2017-Dec-16 18:00N 37°42' W 122°20'0 0.0
2017-Dec-16 17:31N 37°42' W 122°20'0 0.0
2017-Dec-16 17:00N 37°42' W 122°20'0 0.2
2017-Dec-16 16:30N 37°42' W 122°20'4 7.6
2017-Dec-16 16:00N 37°46' W 122°22'1 2.1
2017-Dec-16 15:30N 37°46' W 122°23'0 0.0
2017-Dec-15 21:19N 37°46' W 122°23'0 1.1
2017-Dec-15 21:01N 37°46' W 122°23'1 2.8
2017-Dec-15 20:31N 37°46' W 122°21'0 0.0
2017-Dec-15 20:01N 37°46' W 122°21'0 0.0
2017-Dec-15 19:31N 37°46' W 122°21'0 0.1
2017-Dec-15 19:00N 37°46' W 122°21'0 0.3
2017-Dec-15 18:31N 37°45' W 122°21'0 0.2
2017-Dec-15 18:01N 37°45' W 122°21'0 0.1
2017-Dec-15 17:31N 37°45' W 122°21'0 0.1
2017-Dec-15 17:00N 37°45' W 122°21'0 0.2
2017-Dec-15 16:30N 37°45' W 122°21'2 4.0
2017-Dec-15 16:00N 37°46' W 122°23'0 0.0
2017-Dec-14 18:31N 37°46' W 122°23'0 0.1
2017-Dec-14 18:01N 37°46' W 122°23'0 0.0
2017-Dec-14 17:30N 37°46' W 122°23'0 0.0
2017-Dec-14 17:01N 37°46' W 122°23'0 0.1
2017-Dec-14 16:31N 37°46' W 122°23'0 0.2
2017-Dec-14 16:01N 37°46' W 122°23'0 0.0
2017-Dec-14 06:37N 37°46' W 122°23'0 0.0
2017-Dec-14 06:30N 37°46' W 122°23'2 3.4
2017-Dec-14 06:01N 37°45' W 122°21'0 0.1
2017-Dec-14 05:30N 37°45' W 122°21'0 0.1
2017-Dec-14 05:00N 37°45' W 122°21'0 0.0
2017-Dec-14 04:30N 37°45' W 122°21'0 0.0
2017-Dec-14 04:00N 37°45' W 122°21'0 0.0
2017-Dec-14 03:30N 37°45' W 122°21'0 0.0
2017-Dec-14 03:00N 37°45' W 122°21'0 0.0
2017-Dec-14 02:30N 37°45' W 122°21'0 0.0
2017-Dec-14 02:00N 37°45' W 122°21'0 0.0
2017-Dec-14 01:30N 37°45' W 122°21'0 0.0
2017-Dec-14 01:00N 37°45' W 122°21'0 0.0
2017-Dec-14 00:30N 37°45' W 122°21'0 0.3
2017-Dec-14 00:00N 37°46' W 122°21'0 0.2
2017-Dec-13 23:30N 37°46' W 122°21'0 0.0
2017-Dec-13 23:00N 37°46' W 122°21'0 0.0
2017-Dec-13 22:30N 37°46' W 122°21'0 0.1
2017-Dec-13 22:00N 37°46' W 122°21'0 0.0
2017-Dec-13 21:30N 37°46' W 122°21'2 4.4
2017-Dec-13 21:00N 37°48' W 122°21'1 1.7
2017-Dec-13 20:30N 37°48' W 122°20'0 0.0
2017-Dec-13 20:00N 37°48' W 122°20'0 0.0
2017-Dec-13 19:30N 37°48' W 122°20'0 0.0
2017-Dec-13 19:00N 37°48' W 122°20'0 0.0
2017-Dec-13 18:31N 37°48' W 122°20'0 0.0
2017-Dec-13 18:00N 37°48' W 122°20'0 0.0
2017-Dec-13 17:30N 37°48' W 122°20'0 0.0
2017-Dec-13 17:00N 37°48' W 122°20'0 0.0
2017-Dec-13 16:30N 37°48' W 122°20'0 0.0
2017-Dec-13 16:00N 37°48' W 122°20'2 3.7
2017-Dec-13 15:30N 37°47' W 122°22'1 2.7
2017-Dec-13 15:00N 37°46' W 122°23'0 0.0
2017-Dec-13 14:30N 37°46' W 122°23'1 1.9
2017-Dec-13 14:00N 37°47' W 122°23'4 8.7
2017-Dec-13 13:30N 37°52' W 122°23'3 5.1
2017-Dec-13 13:00N 37°54' W 122°23'1 2.4
2017-Dec-13 12:30N 37°55' W 122°22'0 0.0
2017-Dec-13 12:00N 37°55' W 122°22'0 0.0
2017-Dec-13 11:30N 37°55' W 122°22'0 0.0
2017-Dec-13 11:00N 37°55' W 122°22'0 0.0
2017-Dec-13 10:30N 37°55' W 122°22'0 0.0
2017-Dec-13 10:00N 37°55' W 122°22'0 0.0
2017-Dec-13 09:30N 37°55' W 122°22'0 0.0
2017-Dec-13 09:00N 37°55' W 122°22'0 0.0
2017-Dec-13 08:30N 37°55' W 122°22'0 0.0
2017-Dec-13 08:00N 37°55' W 122°22'0 0.0
2017-Dec-13 07:30N 37°55' W 122°22'0 0.9
2017-Dec-13 07:00N 37°55' W 122°22'3 5.3
2017-Dec-13 06:30N 37°53' W 122°24'4 9.0
2017-Dec-13 06:00N 37°49' W 122°21'3 5.7
2017-Dec-13 05:30N 37°46' W 122°21'0 0.4
2017-Dec-13 05:00N 37°46' W 122°20'0 0.0
2017-Dec-13 04:31N 37°46' W 122°20'0 0.1
2017-Dec-13 04:00N 37°46' W 122°20'0 0.0
2017-Dec-13 03:30N 37°46' W 122°20'0 0.0
2017-Dec-13 03:00N 37°46' W 122°20'0 0.0
2017-Dec-13 02:30N 37°46' W 122°20'0 0.0
2017-Dec-13 02:00N 37°46' W 122°20'0 0.1
2017-Dec-13 01:30N 37°46' W 122°20'2 4.6
2017-Dec-13 01:00N 37°46' W 122°23'0 0.0
2017-Dec-13 00:30N 37°46' W 122°23'0 0.0
2017-Dec-13 00:00N 37°46' W 122°23'0 0.0
2017-Dec-12 23:30N 37°46' W 122°23'0 0.0
2017-Dec-12 23:01N 37°46' W 122°23'0 0.0
2017-Dec-12 22:30N 37°46' W 122°23'1 1.4
2017-Dec-12 22:00N 37°46' W 122°22'2 3.5
2017-Dec-12 21:30N 37°46' W 122°20'0 0.0
2017-Dec-12 21:00N 37°46' W 122°20'0 0.0
2017-Dec-12 20:31N 37°46' W 122°20'0 0.0
2017-Dec-12 20:00N 37°46' W 122°20'0 0.0
2017-Dec-12 19:31N 37°46' W 122°20'0 0.0
2017-Dec-12 19:00N 37°46' W 122°20'0 0.1
2017-Dec-12 18:30N 37°46' W 122°20'0 0.1
2017-Dec-12 18:01N 37°46' W 122°20'0 0.1
2017-Dec-12 17:31N 37°46' W 122°20'2 4.6
2017-Dec-12 17:00N 37°46' W 122°23'0 0.1
2017-Dec-12 16:30N 37°46' W 122°23'0 0.0
2017-Dec-12 16:00N 37°46' W 122°23'0 0.0
2017-Dec-11 20:45N 37°46' W 122°23'0 1.0
2017-Dec-11 20:30N 37°47' W 122°23'2 4.6
2017-Dec-11 20:01N 37°45' W 122°21'0 0.0
2017-Dec-11 19:30N 37°45' W 122°21'0 0.0
2017-Dec-11 19:01N 37°45' W 122°21'0 0.0
2017-Dec-11 18:30N 37°45' W 122°21'0 0.0
2017-Dec-11 18:00N 37°45' W 122°21'0 0.1
2017-Dec-11 17:30N 37°45' W 122°21'0 0.0
2017-Dec-11 17:00N 37°45' W 122°21'0 0.5
2017-Dec-11 16:30N 37°45' W 122°21'2 4.6
2017-Dec-11 16:00N 37°46' W 122°23'0 0.0
2017-Dec-10 05:01N 37°46' W 122°23'0 0.0
2017-Dec-10 05:00N 37°46' W 122°23'1 1.6
2017-Dec-10 04:30N 37°47' W 122°23'3 6.1
2017-Dec-10 04:00N 37°50' W 122°25'3 5.7
2017-Dec-10 03:30N 37°51' W 122°28'0 0.1
2017-Dec-10 03:01N 37°51' W 122°28'0 0.1
2017-Dec-10 02:31N 37°51' W 122°28'4 7.2
2017-Dec-10 02:00N 37°49' W 122°24'3 6.2
2017-Dec-10 01:30N 37°46' W 122°23'0 0.0
2017-Dec-09 22:36N 37°46' W 122°23'0 0.1
2017-Dec-09 22:30N 37°46' W 122°23'3 7.0
2017-Dec-09 22:00N 37°50' W 122°23'4 7.7
2017-Dec-09 21:31N 37°54' W 122°24'2 3.2
2017-Dec-09 20:51N 37°55' W 122°22'0 0.0
2017-Dec-09 20:27N 37°55' W 122°22'0 0.0
2017-Dec-09 19:59N 37°55' W 122°22'0 0.0
2017-Dec-09 18:34N 37°55' W 122°22'0 0.0
2017-Dec-09 18:25N 37°55' W 122°22'0 0.0
2017-Dec-09 17:58N 37°55' W 122°22'0 0.0
2017-Dec-09 17:14N 37°55' W 122°22'0 0.0
2017-Dec-09 16:59N 37°55' W 122°22'0 0.2
2017-Dec-09 16:31N 37°55' W 122°22'2 3.9
2017-Dec-09 16:01N 37°54' W 122°24'4 7.1
2017-Dec-09 15:31N 37°50' W 122°23'4 7.8
2017-Dec-09 15:00N 37°46' W 122°23'0 0.0
2017-Dec-09 04:38N 37°46' W 122°23'0 0.0
2017-Dec-09 04:30N 37°46' W 122°23'2 3.1
2017-Dec-09 04:00N 37°46' W 122°21'0 0.0
2017-Dec-09 03:30N 37°46' W 122°21'0 0.0
2017-Dec-09 03:00N 37°46' W 122°21'0 0.0
2017-Dec-09 02:31N 37°46' W 122°21'0 0.0
2017-Dec-09 02:00N 37°46' W 122°21'0 0.1
2017-Dec-09 01:31N 37°46' W 122°21'0 0.0
2017-Dec-09 01:01N 37°46' W 122°21'0 0.0
2017-Dec-09 00:30N 37°46' W 122°21'0 0.3
2017-Dec-09 00:00N 37°46' W 122°21'0 0.2
2017-Dec-08 23:30N 37°45' W 122°21'0 0.1
2017-Dec-08 23:00N 37°45' W 122°21'0 0.0
2017-Dec-08 22:30N 37°45' W 122°21'0 0.0
2017-Dec-08 22:00N 37°45' W 122°21'0 0.0
2017-Dec-08 21:31N 37°45' W 122°21'0 0.0
2017-Dec-08 21:01N 37°45' W 122°21'0 0.0
2017-Dec-08 20:30N 37°45' W 122°21'0 0.0
2017-Dec-08 20:00N 37°45' W 122°21'0 0.0
2017-Dec-08 19:31N 37°45' W 122°21'0 0.1
2017-Dec-08 19:00N 37°45' W 122°21'2 3.7
2017-Dec-08 18:30N 37°46' W 122°23'0 0.0
2017-Dec-08 18:00N 37°46' W 122°23'  

Dump ship's entire track history